Station: Williamtown  

  Atmospheric Gas Attenuation - ITU Rec 676-11   ----------------- dB/100km -----------------
Date Time Temp RH % AH g/m3 Dew Point Wind Direction Speed kph Gust kph Barometer mB Rainfall Since 9am 24GHz 47GHz 76GHz 122GHz 134GHz 241GHz
08/05 12:30 19 37 6.03 4 28 37 1017.1 0 13.9 20.9 28.3 73.7 62.1 211.9
08/05 12:20 18.8 38 6.12 4.2 35 41 1017.3 0 14.1 21.0 28.7 74.7 63.3 216.0
08/05 12:10 18.3 39 6.1 4.1 32 39 1017.4 0 14.1 21.1 28.8 75.0 63.5 216.6
08/05 12:00 18.3 39 6.1 4.1 33 33 1017.4 0 14.1 21.1 28.8 75.0 63.5 216.6
08/05 11:50 18.1 40 6.18 4.3 32 37 1017.7 0 14.3 21.3 29.1 75.9 64.6 220.3
08/05 11:40 17.8 40 6.07 4 32 39 1017.9 0 14.1 21.2 28.9 75.2 63.6 216.8
08/05 11:30 17.7 41 6.19 4.3 33 39 1018.1 0 14.3 21.4 29.3 76.4 65.0 221.9
08/05 11:20 17 41 5.93 3.7 41 46 1018.3 0 13.8 21.2 28.7 74.7 62.6 213.3
08/05 11:10 16.9 42 6.04 3.9 39 44 1018.4 0 14.0 21.4 29.1 75.8 64.0 218.0
08/05 11:00 16.5 42 5.9 3.6 43 48 1018.4 0 13.7 21.3 28.7 74.9 62.7 213.4
08/05 10:50 16.9 43 6.18 4.3 32 43 1018.6 0 14.3 21.6 29.6 77.1 65.6 223.8
08/05 10:40 15.9 43 5.82 3.4 30 37 1018.7 0 13.6 21.3 28.7 74.7 62.2 211.8
08/05 10:30 15.3 44 5.75 3.1 37 44 1018.7 0 13.5 21.4 28.7 74.6 61.9 210.5
08/05 10:20 15.5 44 5.82 3.3 41 46 1018.6 0 13.6 21.4 28.8 75.1 62.5 212.8
08/05 10:10 15.1 45 5.81 3.3 39 48 1018.8 0 13.6 21.5 28.9 75.4 62.7 213.5
08/05 10:00 14.6 45 5.63 2.8 37 44 1018.9 0 13.2 21.4 28.5 74.1 61.0 207.4
08/05 09:50 14.4 46 5.69 2.9 41 46 1019.1 0 13.4 21.5 28.8 74.9 61.9 210.4
08/05 09:40 14.1 46 5.58 2.7 33 39 1019.2 0 13.2 21.4 28.5 74.1 60.8 206.7
08/05 09:30 14 47 5.67 2.9 33 37 1019.2 0 13.4 21.6 28.8 75.1 62.0 210.7
08/05 09:20 13.4 48 5.58 2.6 39 44 1019.3 0 13.2 21.6 28.7 74.8 61.4 208.5
08/05 09:10 13.1 49 5.59 2.6 43 48 1019.4 0 13.2 21.7 28.9 75.2 61.7 209.7
08/05 09:00 12.9 49 5.52 2.5 39 48 1019 0 13.1 21.6 28.7 74.6 61.0 207.2
08/05 08:50 12.8 50 5.6 2.6 37 46 1019.4 0 13.2 21.8 29.0 75.5 62.1 210.9
08/05 08:40 12.2 49 5.29 1.8 43 56 1019.3 0 12.6 21.4 28.1 73.1 58.8 199.4
08/05 08:30 12.1 50 5.36 2 33 41 1019.4 0 12.8 21.6 28.4 73.9 59.7 202.6
08/05 08:20 11.8 51 5.37 2 39 44 1019.4 0 12.8 21.7 28.5 74.2 60.1 203.8
08/05 08:10 11.7 52 5.44 2.2 28 35 1019.3 0 12.9 21.8 28.8 75.0 61.0 207.0
08/05 08:00 11.2 53 5.37 2 33 41 1019.4 0 12.8 21.8 28.7 74.8 60.5 205.3
08/05 07:50 10.7 54 5.31 1.8 37 44 1019.3 0 12.7 21.8 28.7 74.7 60.2 204.0
08/05 07:40 10.4 55 5.3 1.8 30 35 1019.2 0 12.7 21.9 28.8 74.8 60.3 204.3
08/05 07:30 10 56 5.26 1.6 32 37 1019.2 0 12.6 21.9 28.8 74.8 60.1 203.6
08/05 07:20 9.8 56 5.2 1.5 37 46 1019.1 0 12.5 21.9 28.6 74.4 59.5 201.5
08/05 07:10 9.5 57 5.19 1.4 37 43 1019.3 0 12.5 21.9 28.7 74.6 59.6 201.9
08/05 07:00 9.3 57 5.12 1.2 37 41 1019.3 0 12.3 21.9 28.5 74.1 58.9 199.3
08/05 06:50 9 58 5.12 1.2 30 35 1019.3 0 12.4 21.9 28.6 74.4 59.1 200.1
08/05 06:40 9 58 5.12 1.2 30 35 1019.3 0 12.4 21.9 28.6 74.4 59.1 200.1
08/05 06:30 9 58 5.12 1.2 32 43 1019.2 0 12.4 21.9 28.6 74.4 59.1 200.1
08/05 06:20 9.1 57 5.06 1 30 35 1019.3 0 12.2 21.8 28.3 73.7 58.3 197.2
08/05 06:10 9 57 5.03 1 26 28 1019.2 0 12.2 21.8 28.3 73.5 58.0 196.2
08/05 06:00 9 57 5.03 1 28 44 1019 0 12.2 21.8 28.2 73.4 58.0 196.1
08/05 05:50 9 56 4.94 0.7 26 28 1019.1 0 12.0 21.7 27.9 72.6 56.9 192.3
08/05 05:40 9.2 56 5 0.9 28 35 1018.9 0 12.1 21.7 28.1 73.0 57.5 194.3
08/05 05:30 9 56 4.94 0.7 28 39 1018.6 0 12.0 21.6 27.9 72.5 56.9 192.2
08/05 05:20 9 55 4.85 0.5 28 32 1018.7 0 11.8 21.5 27.6 71.6 55.8 188.3
08/05 05:10 9.1 55 4.88 0.6 24 26 1018.7 0 11.8 21.5 27.6 71.8 56.1 189.4
08/05 05:00 9.1 55 4.88 0.6 26 37 1018.7 0 11.8 21.5 27.6 71.8 56.1 189.4
08/05 04:50 9.1 55 4.88 0.6 26 33 1018.8 0 11.8 21.5 27.7 71.9 56.1 189.4
08/05 04:40 8.8 55 4.79 0.3 26 32 1018.9 0 11.7 21.5 27.4 71.2 55.2 186.3
08/05 04:30 8.8 55 4.79 0.3 24 33 1018.8 0 11.7 21.5 27.4 71.2 55.2 186.3
08/05 04:20 8.6 56 4.81 0.3 24 28 1018.9 0 11.7 21.6 27.6 71.6 55.6 187.6
08/05 04:10 8.6 55 4.73 0.1 24 30 1018.9 0 11.5 21.4 27.3 70.8 54.6 184.2
08/05 04:00 8.8 55 4.79 0.3 24 35 1018.7 0 11.7 21.5 27.4 71.2 55.2 186.2
08/05 03:50 8.7 55 4.76 0.2 24 30 1019 0 11.6 21.5 27.4 71.0 54.9 185.2
08/05 03:40 8.6 55 4.73 0.1 20 24 1018.9 0 11.5 21.4 27.3 70.8 54.6 184.2
08/05 03:30 8.6 55 4.73 0.1 19 26 1019 0 11.5 21.4 27.3 70.8 54.6 184.2
08/05 03:20 8.6 55 4.73 0.1 22 24 1019 0 11.5 21.4 27.3 70.8 54.6 184.2
08/05 03:10 8.6 55 4.73 0.1 19 22 1019.2 0 11.5 21.4 27.3 70.9 54.6 184.2
08/05 03:00 8.5 55 4.7 0 20 24 1019.1 0 11.5 21.4 27.2 70.6 54.3 183.1
08/05 02:50 8.5 55 4.7 0 22 24 1019.2 0 11.5 21.4 27.2 70.6 54.3 183.2
08/05 02:40 8.7 54 4.67 -0.1 22 26 1019.3 0 11.4 21.3 27.0 70.2 53.8 181.4
08/05 02:30 8.6 54 4.64 -0.2 20 26 1019.2 0 11.3 21.3 27.0 70.0 53.5 180.4
08/05 02:20 8.5 55 4.7 0 22 26 1019.4 0 11.5 21.4 27.2 70.7 54.3 183.2
08/05 02:10 8 57 4.71 0 20 22 1019.5 0 11.5 21.6 27.4 71.2 54.8 184.8
08/05 02:00 7.9 57 4.68 -0.1 17 20 1019.5 0 11.5 21.5 27.3 71.0 54.5 183.7
08/05 01:50 8.1 56 4.66 -0.1 20 22 1019.6 0 11.4 21.5 27.2 70.6 54.1 182.4
08/05 01:40 7.9 57 4.68 -0.1 15 17 1019.6 0 11.5 21.6 27.3 71.0 54.5 183.7
08/05 01:30 8 56 4.63 -0.2 15 19 1019.5 0 11.3 21.4 27.1 70.4 53.8 181.3
08/05 01:20 8.4 54 4.58 -0.4 15 17 1019.7 0 11.2 21.3 26.8 69.6 53.0 178.3
08/05 01:10 8.9 53 4.64 -0.1 17 20 1019.8 0 11.3 21.3 26.9 69.8 53.4 179.8
08/05 01:00 9 52 4.59 -0.3 19 22 1019.7 0 11.2 21.2 26.7 69.2 52.7 177.4
08/05 00:50 9.2 51 4.56 -0.4 19 19 1019.8 0 11.2 21.1 26.5 68.7 52.2 175.7
08/05 00:40 9.1 51 4.53 -0.5 17 20 1019.9 0 11.1 21.1 26.4 68.5 51.9 174.7
08/05 00:20 9.4 50 4.52 -0.5 20 22 1019.9 0 11.1 21.0 26.3 68.2 51.6 173.6
08/05 00:10 9.3 50 4.49 -0.6 19 22 1019.8 0 11.0 21.0 26.2 68.0 51.3 172.6
08/05 00:00 9.3 50 4.49 -0.6 20 26 1019.7 0 11.0 20.9 26.2 67.9 51.3 172.6
07/05 23:50 9.4 50 4.52 -0.5 19 20 1019.8 0 11.1 21.0 26.3 68.2 51.6 173.6
07/05 23:40 9.3 50 4.49 -0.6 19 20 1019.7 0 11.0 20.9 26.2 67.9 51.3 172.6
07/05 23:30 9.3 50 4.49 -0.6 19 22 1019.7 0 11.0 20.9 26.2 67.9 51.3 172.6
07/05 23:20 9.4 50 4.52 -0.5 20 22 1019.8 0 11.1 21.0 26.3 68.2 51.6 173.6
07/05 23:10 9.4 50 4.52 -0.5 20 26 1019.6 0 11.1 21.0 26.3 68.1 51.6 173.6
07/05 23:00 9 51 4.5 -0.6 19 22 1019.6 0 11.0 21.0 26.3 68.3 51.6 173.6
07/05 22:50 9.6 48 4.4 -0.9 19 22 1019.6 0 10.8 20.7 25.8 66.8 50.0 168.2
07/05 22:40 9.8 47 4.36 -1 19 20 1019.6 0 10.7 20.6 25.6 66.3 49.4 166.1
07/05 22:30 10.2 46 4.38 -0.9 17 22 1019.6 0 10.7 20.6 25.5 66.1 49.4 166.1
07/05 22:20 10.6 44 4.3 -1.1 19 22 1019.6 0 10.6 20.4 25.1 65.1 48.2 162.0
07/05 22:10 10.9 43 4.28 -1.2 20 22 1019.7 0 10.5 20.3 25.0 64.6 47.8 160.6
07/05 22:00 10.9 43 4.28 -1.2 17 22 1019.7 0 10.5 20.3 25.0 64.6 47.8 160.6
07/05 21:50 10.9 43 4.28 -1.2 19 19 1019.8 0 10.5 20.3 25.0 64.6 47.8 160.6
07/05 21:40 11.4 42 4.31 -1 19 22 1019.8 0 10.6 20.2 24.9 64.5 47.9 160.8
07/05 21:30 11.5 41 4.24 -1.3 19 26 1019.6 0 10.4 20.1 24.6 63.8 47.0 157.8
07/05 21:20 11.5 41 4.24 -1.3 19 22 1019.6 0 10.4 20.1 24.6 63.8 47.0 157.8
07/05 21:10 11.6 40 4.16 -1.5 19 24 1019.4 0 10.2 20.0 24.3 62.9 46.0 154.3
07/05 21:00 11.6 40 4.16 -1.5 19 24 1019.3 0 10.2 20.0 24.3 62.9 46.0 154.3
07/05 20:50 11.6 40 4.16 -1.5 17 20 1019.3 0 10.2 20.0 24.3 62.9 46.0 154.3
07/05 20:40 12 38 4.05 -1.9 17 20 1019.2 0 10.0 19.7 23.8 61.6 44.5 149.2
07/05 20:30 12.2 38 4.1 -1.7 20 30 1019 0 10.1 19.7 23.9 61.9 45.0 150.8
07/05 20:20 12.3 37 4.02 -2 24 26 1019.1 0 9.9 19.6 23.6 61.1 44.0 147.4
07/05 20:10 12.3 37 4.02 -2 24 30 1019.1 0 9.9 19.6 23.6 61.1 44.0 147.4
07/05 20:00 12.3 37 4.02 -2 20 32 1018.9 0 9.9 19.6 23.6 61.1 44.0 147.4
07/05 19:50 12.5 36 3.96 -2.1 22 24 1018.9 0 9.8 19.5 23.4 60.4 43.3 144.7

Last Refresh: 08-May-2026 12:07:36

Bureau of Meteorology